createdAt,value
2022-10-26T00:00:15.000Z,1009
2022-10-26T00:01:27.000Z,1009
2022-10-26T00:02:39.000Z,1009
2022-10-26T00:03:51.000Z,1009
2022-10-26T00:05:04.000Z,1009
2022-10-26T00:06:16.000Z,1009
2022-10-26T00:07:28.000Z,1009
2022-10-26T00:08:40.000Z,1009
2022-10-26T00:09:52.000Z,1009
2022-10-26T00:11:05.000Z,1009
2022-10-26T00:12:17.000Z,1009
2022-10-26T00:13:29.000Z,1009
2022-10-26T00:14:41.000Z,1009
2022-10-26T00:15:52.000Z,1009
2022-10-26T00:17:04.000Z,1009
2022-10-26T00:18:17.000Z,1009
2022-10-26T00:19:29.000Z,1009
2022-10-26T00:20:41.000Z,1009
2022-10-26T00:21:53.000Z,1009.1
2022-10-26T00:23:05.000Z,1009
2022-10-26T00:24:18.000Z,1009.1
2022-10-26T00:25:30.000Z,1009.1
2022-10-26T00:26:42.000Z,1009.1
2022-10-26T00:27:54.000Z,1009.1
2022-10-26T00:29:06.000Z,1009.2
2022-10-26T00:30:19.000Z,1009.1
2022-10-26T00:31:30.000Z,1009.1
2022-10-26T00:32:42.000Z,1009.1
2022-10-26T00:33:54.000Z,1009.1
2022-10-26T00:35:06.000Z,1009.2
2022-10-26T00:36:18.000Z,1009.2
2022-10-26T00:37:31.000Z,1009.2
2022-10-26T00:38:43.000Z,1009.2
2022-10-26T00:39:55.000Z,1009.2
2022-10-26T00:41:07.000Z,1009.2
2022-10-26T00:42:19.000Z,1009.2
2022-10-26T00:43:32.000Z,1009.2
2022-10-26T00:44:44.000Z,1009.3
2022-10-26T00:45:56.000Z,1009.2
2022-10-26T00:47:07.000Z,1009.2
2022-10-26T00:48:19.000Z,1009.2
2022-10-26T00:49:31.000Z,1009.2
2022-10-26T00:50:44.000Z,1009.1
2022-10-26T00:51:56.000Z,1009.1
2022-10-26T00:53:08.000Z,1009.1
2022-10-26T00:54:20.000Z,1009.1
2022-10-26T00:55:32.000Z,1009.1
2022-10-26T00:56:45.000Z,1009.1
2022-10-26T00:57:57.000Z,1009.1
2022-10-26T00:59:09.000Z,1009
2022-10-26T01:00:21.000Z,1009
2022-10-26T01:01:33.000Z,1009
2022-10-26T01:02:45.000Z,1009
2022-10-26T01:03:57.000Z,1009
2022-10-26T01:05:09.000Z,1009
2022-10-26T01:06:21.000Z,1009
2022-10-26T01:07:33.000Z,1009
2022-10-26T01:08:45.000Z,1009
2022-10-26T01:09:58.000Z,1009
2022-10-26T01:11:10.000Z,1009
2022-10-26T01:12:22.000Z,1009
2022-10-26T01:13:34.000Z,1008.9
2022-10-26T01:14:46.000Z,1008.9
2022-10-26T01:15:59.000Z,1008.9
2022-10-26T01:17:11.000Z,1008.9
2022-10-26T01:18:22.000Z,1008.9
2022-10-26T01:19:34.000Z,1008.9
2022-10-26T01:20:46.000Z,1008.9
2022-10-26T01:21:59.000Z,1008.9
2022-10-26T01:23:11.000Z,1008.9
2022-10-26T01:24:23.000Z,1008.9
2022-10-26T01:25:35.000Z,1008.9
2022-10-26T01:26:47.000Z,1008.9
2022-10-26T01:27:59.000Z,1008.8
2022-10-26T01:29:12.000Z,1008.9
2022-10-26T01:30:24.000Z,1008.9
2022-10-26T01:31:36.000Z,1008.9
2022-10-26T01:32:48.000Z,1008.9
2022-10-26T01:33:59.000Z,1008.9
2022-10-26T01:35:12.000Z,1008.9
2022-10-26T01:36:24.000Z,1008.9
2022-10-26T01:37:36.000Z,1008.9
2022-10-26T01:38:48.000Z,1008.8
2022-10-26T01:40:00.000Z,1008.8
2022-10-26T01:41:13.000Z,1008.8
2022-10-26T01:42:25.000Z,1008.8
2022-10-26T01:43:37.000Z,1008.8
2022-10-26T01:44:49.000Z,1008.8
2022-10-26T01:46:01.000Z,1008.8
2022-10-26T01:48:26.000Z,1008.8
2022-10-26T01:49:37.000Z,1008.8
2022-10-26T01:50:49.000Z,1008.8
2022-10-26T01:52:01.000Z,1008.8
2022-10-26T01:53:13.000Z,1008.7
2022-10-26T01:54:26.000Z,1008.7
2022-10-26T01:55:38.000Z,1008.7
2022-10-26T01:56:50.000Z,1008.7
2022-10-26T01:58:02.000Z,1008.8
2022-10-26T01:59:14.000Z,1008.7
2022-10-26T02:00:26.000Z,1008.8
2022-10-26T02:01:39.000Z,1008.7
2022-10-26T02:02:51.000Z,1008.7
2022-10-26T02:04:03.000Z,1008.7
2022-10-26T02:05:14.000Z,1008.7
2022-10-26T02:06:26.000Z,1008.6
2022-10-26T02:07:39.000Z,1008.7
2022-10-26T02:08:51.000Z,1008.7
2022-10-26T02:10:03.000Z,1008.7
2022-10-26T02:11:15.000Z,1008.7
2022-10-26T02:12:27.000Z,1008.7
2022-10-26T02:13:40.000Z,1008.7
2022-10-26T02:14:52.000Z,1008.7
2022-10-26T02:16:04.000Z,1008.6
2022-10-26T02:17:16.000Z,1008.7
2022-10-26T02:18:28.000Z,1008.6
2022-10-26T02:19:40.000Z,1008.7
2022-10-26T02:20:52.000Z,1008.7
2022-10-26T02:22:04.000Z,1008.7
2022-10-26T02:23:16.000Z,1008.6
2022-10-26T02:24:28.000Z,1008.6
2022-10-26T02:25:40.000Z,1008.6
2022-10-26T02:26:53.000Z,1008.6
2022-10-26T02:28:05.000Z,1008.6
2022-10-26T02:29:17.000Z,1008.6
2022-10-26T02:30:29.000Z,1008.6
2022-10-26T02:31:41.000Z,1008.6
2022-10-26T02:32:54.000Z,1008.6
2022-10-26T02:34:06.000Z,1008.6
2022-10-26T02:35:18.000Z,1008.6
2022-10-26T02:36:29.000Z,1008.6
2022-10-26T02:37:41.000Z,1008.6
2022-10-26T02:38:53.000Z,1008.6
2022-10-26T02:40:06.000Z,1008.6
2022-10-26T02:41:18.000Z,1008.6
2022-10-26T02:42:30.000Z,1008.6
2022-10-26T02:43:42.000Z,1008.6
2022-10-26T02:44:54.000Z,1008.5
2022-10-26T02:46:07.000Z,1008.5
2022-10-26T02:47:19.000Z,1008.6
2022-10-26T02:48:31.000Z,1008.6
2022-10-26T02:49:43.000Z,1008.6
2022-10-26T02:50:55.000Z,1008.6
2022-10-26T02:52:06.000Z,1008.6
2022-10-26T02:53:19.000Z,1008.6
2022-10-26T02:54:31.000Z,1008.5
2022-10-26T02:55:43.000Z,1008.5
2022-10-26T02:56:55.000Z,1008.5
2022-10-26T02:58:07.000Z,1008.5
2022-10-26T02:59:20.000Z,1008.5
2022-10-26T03:00:32.000Z,1008.5
2022-10-26T03:01:44.000Z,1008.5
2022-10-26T03:02:56.000Z,1008.4
2022-10-26T03:04:08.000Z,1008.5
2022-10-26T03:05:21.000Z,1008.5
2022-10-26T03:06:33.000Z,1008.4
2022-10-26T03:07:44.000Z,1008.5
2022-10-26T03:08:56.000Z,1008.4
2022-10-26T03:10:08.000Z,1008.4
2022-10-26T03:11:20.000Z,1008.4
2022-10-26T03:12:33.000Z,1008.4
2022-10-26T03:13:45.000Z,1008.4
2022-10-26T03:14:57.000Z,1008.4
2022-10-26T03:16:09.000Z,1008.3
2022-10-26T03:17:21.000Z,1008.4
2022-10-26T03:18:34.000Z,1008.5
2022-10-26T03:20:58.000Z,1008.4
2022-10-26T03:22:10.000Z,1008.4
2022-10-26T03:23:21.000Z,1008.4
2022-10-26T03:24:34.000Z,1008.4
2022-10-26T03:25:46.000Z,1008.4
2022-10-26T03:26:58.000Z,1008.4
2022-10-26T03:28:10.000Z,1008.4
2022-10-26T03:29:22.000Z,1008.4
2022-10-26T03:30:33.000Z,1008.3
2022-10-26T03:31:46.000Z,1008.4
2022-10-26T03:32:58.000Z,1008.4
2022-10-26T03:34:10.000Z,1008.4
2022-10-26T03:35:22.000Z,1008.3
2022-10-26T03:36:34.000Z,1008.4
2022-10-26T03:37:47.000Z,1008.4
2022-10-26T03:38:59.000Z,1008.4
2022-10-26T03:40:11.000Z,1008.4
2022-10-26T03:41:23.000Z,1008.4
2022-10-26T03:42:35.000Z,1008.4
2022-10-26T03:43:48.000Z,1008.4
2022-10-26T03:45:00.000Z,1008.3
2022-10-26T03:46:11.000Z,1008.4
2022-10-26T03:47:23.000Z,1008.4
2022-10-26T03:48:35.000Z,1008.4
2022-10-26T03:49:47.000Z,1008.3
2022-10-26T03:51:00.000Z,1008.3
2022-10-26T03:52:12.000Z,1008.3
2022-10-26T03:53:24.000Z,1008.3
2022-10-26T03:54:36.000Z,1008.2
2022-10-26T03:55:48.000Z,1008.2
2022-10-26T03:57:01.000Z,1008.2
2022-10-26T03:58:13.000Z,1008.2
2022-10-26T03:59:25.000Z,1008.2
2022-10-26T04:00:37.000Z,1008.2
2022-10-26T04:01:48.000Z,1008.2
2022-10-26T04:03:01.000Z,1008.3
2022-10-26T04:04:13.000Z,1008.3
2022-10-26T04:05:25.000Z,1008.2
2022-10-26T04:06:37.000Z,1008.2
2022-10-26T04:07:49.000Z,1008.2
2022-10-26T04:09:01.000Z,1008.3
2022-10-26T04:10:14.000Z,1008.3
2022-10-26T04:11:26.000Z,1008.3
2022-10-26T04:12:38.000Z,1008.3
2022-10-26T04:13:50.000Z,1008.3
2022-10-26T04:15:02.000Z,1008.3
2022-10-26T04:16:15.000Z,1008.3
2022-10-26T04:18:38.000Z,1008.3
2022-10-26T04:19:50.000Z,1008.3
2022-10-26T04:21:02.000Z,1008.3
2022-10-26T04:22:14.000Z,1008.3
2022-10-26T04:23:27.000Z,1008.3
2022-10-26T04:24:39.000Z,1008.2
2022-10-26T04:25:51.000Z,1008.3
2022-10-26T04:27:03.000Z,1008.3
2022-10-26T04:28:15.000Z,1008.3
2022-10-26T04:29:28.000Z,1008.3
2022-10-26T04:30:40.000Z,1008.3
2022-10-26T04:31:52.000Z,1008.3
2022-10-26T04:33:03.000Z,1008.3
2022-10-26T04:34:15.000Z,1008.3
2022-10-26T04:35:28.000Z,1008.2
2022-10-26T04:36:40.000Z,1008.3
2022-10-26T04:37:52.000Z,1008.3
2022-10-26T04:39:04.000Z,1008.3
2022-10-26T04:40:16.000Z,1008.2
2022-10-26T04:41:28.000Z,1008.3
2022-10-26T04:42:41.000Z,1008.2
2022-10-26T04:43:53.000Z,1008.2
2022-10-26T04:45:05.000Z,1008.3
2022-10-26T04:47:29.000Z,1008.4
2022-10-26T04:48:41.000Z,1008.3
2022-10-26T04:49:53.000Z,1008.2
2022-10-26T04:51:05.000Z,1008.3
2022-10-26T04:52:17.000Z,1008.3
2022-10-26T04:53:29.000Z,1008.2
2022-10-26T04:54:42.000Z,1008.2
2022-10-26T04:55:54.000Z,1008.1
2022-10-26T04:57:06.000Z,1008.1
2022-10-26T04:58:18.000Z,1008.1
2022-10-26T04:59:30.000Z,1008.2
2022-10-26T05:00:42.000Z,1008.2
2022-10-26T05:01:55.000Z,1008.2
2022-10-26T05:03:07.000Z,1008.1
2022-10-26T05:04:18.000Z,1008.2
2022-10-26T05:05:30.000Z,1008.2
2022-10-26T05:06:42.000Z,1008.1
2022-10-26T05:07:55.000Z,1008.1
2022-10-26T05:09:07.000Z,1008.1
2022-10-26T05:10:19.000Z,1008.1
2022-10-26T05:11:31.000Z,1008.2
2022-10-26T05:12:43.000Z,1008.2
2022-10-26T05:13:55.000Z,1008.1
2022-10-26T05:15:08.000Z,1008.1
2022-10-26T05:16:20.000Z,1008.1
2022-10-26T05:17:32.000Z,1008.1
2022-10-26T05:18:44.000Z,1008.1
2022-10-26T05:19:55.000Z,1008.1
2022-10-26T05:21:08.000Z,1008.1
2022-10-26T05:22:20.000Z,1008.1
2022-10-26T05:23:32.000Z,1008
2022-10-26T05:24:44.000Z,1008.1
2022-10-26T05:25:56.000Z,1008.1
2022-10-26T05:27:09.000Z,1008.1
2022-10-26T05:28:21.000Z,1008.1
2022-10-26T05:29:33.000Z,1008.1
2022-10-26T05:30:45.000Z,1008.1
2022-10-26T05:31:57.000Z,1008.1
2022-10-26T05:33:09.000Z,1008.1
2022-10-26T05:34:22.000Z,1008.1
2022-10-26T05:35:33.000Z,1008.1
2022-10-26T05:36:45.000Z,1008.2
2022-10-26T05:37:57.000Z,1008.1
2022-10-26T05:39:09.000Z,1008.2
2022-10-26T05:40:22.000Z,1008.2
2022-10-26T05:41:34.000Z,1008.2
2022-10-26T05:42:46.000Z,1008.1
2022-10-26T05:43:58.000Z,1008.2
2022-10-26T05:45:10.000Z,1008.2
2022-10-26T05:46:23.000Z,1008.3
2022-10-26T05:47:35.000Z,1008.2
2022-10-26T05:48:47.000Z,1008.2
2022-10-26T05:49:59.000Z,1008.2
2022-10-26T05:51:11.000Z,1008.3
2022-10-26T05:52:22.000Z,1008.2
2022-10-26T05:53:35.000Z,1008.3
2022-10-26T05:54:47.000Z,1008.3
2022-10-26T05:55:59.000Z,1008.3
2022-10-26T05:57:11.000Z,1008.3
2022-10-26T05:58:23.000Z,1008.2
2022-10-26T05:59:36.000Z,1008.3
2022-10-26T06:00:48.000Z,1008.3
2022-10-26T06:02:00.000Z,1008.3
2022-10-26T06:03:12.000Z,1008.4
2022-10-26T06:04:24.000Z,1008.4
2022-10-26T06:05:37.000Z,1008.4
2022-10-26T06:06:49.000Z,1008.4
2022-10-26T06:08:00.000Z,1008.4
2022-10-26T06:09:12.000Z,1008.4
2022-10-26T06:10:24.000Z,1008.4
2022-10-26T06:11:36.000Z,1008.3
2022-10-26T06:14:01.000Z,1008.4
2022-10-26T06:15:13.000Z,1008.4
2022-10-26T06:16:25.000Z,1008.4
2022-10-26T06:17:37.000Z,1008.3
2022-10-26T06:18:50.000Z,1008.4
2022-10-26T06:21:14.000Z,1008.4
2022-10-26T06:22:26.000Z,1008.3
2022-10-26T06:23:37.000Z,1008.3
2022-10-26T06:24:50.000Z,1008.3
2022-10-26T06:26:02.000Z,1008.4
2022-10-26T06:27:14.000Z,1008.3
2022-10-26T06:28:26.000Z,1008.4
2022-10-26T06:29:38.000Z,1008.3
2022-10-26T06:30:50.000Z,1008.3
2022-10-26T06:32:03.000Z,1008.3
2022-10-26T06:33:15.000Z,1008.4
2022-10-26T06:34:27.000Z,1008.3
2022-10-26T06:35:39.000Z,1008.3
2022-10-26T06:36:51.000Z,1008.4
2022-10-26T06:38:04.000Z,1008.4
2022-10-26T06:39:15.000Z,1008.4
2022-10-26T06:40:27.000Z,1008.4
2022-10-26T06:41:39.000Z,1008.3
2022-10-26T06:42:51.000Z,1008.4
2022-10-26T06:44:03.000Z,1008.4
2022-10-26T06:45:16.000Z,1008.4
2022-10-26T06:46:28.000Z,1008.4
2022-10-26T06:47:40.000Z,1008.4
2022-10-26T06:48:52.000Z,1008.4
2022-10-26T06:50:04.000Z,1008.4
2022-10-26T06:51:17.000Z,1008.4
2022-10-26T06:52:29.000Z,1008.4
2022-10-26T06:53:41.000Z,1008.4
2022-10-26T06:54:52.000Z,1008.4
2022-10-26T06:56:04.000Z,1008.4
2022-10-26T06:57:17.000Z,1008.4
2022-10-26T06:58:29.000Z,1008.4
2022-10-26T06:59:41.000Z,1008.4
2022-10-26T07:00:53.000Z,1008.4
2022-10-26T07:02:05.000Z,1008.4
2022-10-26T07:03:17.000Z,1008.4
2022-10-26T07:04:30.000Z,1008.4
2022-10-26T07:05:42.000Z,1008.4
2022-10-26T07:06:54.000Z,1008.5
2022-10-26T07:08:06.000Z,1008.5
2022-10-26T07:09:18.000Z,1008.4
2022-10-26T07:10:30.000Z,1008.5
2022-10-26T07:11:42.000Z,1008.4
2022-10-26T07:12:54.000Z,1008.4
2022-10-26T07:14:06.000Z,1008.4
2022-10-26T07:15:18.000Z,1008.4
2022-10-26T07:16:31.000Z,1008.4
2022-10-26T07:17:43.000Z,1008.5
2022-10-26T07:18:55.000Z,1008.5
2022-10-26T07:20:07.000Z,1008.5
2022-10-26T07:21:19.000Z,1008.5
2022-10-26T07:22:31.000Z,1008.5
2022-10-26T07:23:44.000Z,1008.5
2022-10-26T07:24:56.000Z,1008.5
2022-10-26T07:26:07.000Z,1008.5
2022-10-26T07:27:19.000Z,1008.5
2022-10-26T07:28:31.000Z,1008.5
2022-10-26T07:29:44.000Z,1008.6
2022-10-26T07:30:56.000Z,1008.5
2022-10-26T07:32:07.000Z,1008.5
2022-10-26T07:33:19.000Z,1008.5
2022-10-26T07:34:31.000Z,1008.5
2022-10-26T07:35:44.000Z,1008.5
2022-10-26T07:36:56.000Z,1008.5
2022-10-26T07:38:08.000Z,1008.5
2022-10-26T07:39:20.000Z,1008.6
2022-10-26T07:40:32.000Z,1008.5
2022-10-26T07:41:44.000Z,1008.6
2022-10-26T07:42:57.000Z,1008.6
2022-10-26T07:44:09.000Z,1008.6
2022-10-26T07:45:21.000Z,1008.5
2022-10-26T07:46:33.000Z,1008.5
2022-10-26T07:47:44.000Z,1008.6
2022-10-26T07:48:57.000Z,1008.5
2022-10-26T07:50:09.000Z,1008.6
2022-10-26T07:51:21.000Z,1008.6
2022-10-26T07:52:33.000Z,1008.5
2022-10-26T07:54:57.000Z,1008.6
2022-10-26T07:56:10.000Z,1008.6
2022-10-26T07:57:22.000Z,1008.5
2022-10-26T07:58:34.000Z,1008.6
2022-10-26T07:59:46.000Z,1008.6
2022-10-26T08:00:05.000Z,1008.6
2022-10-26T08:00:58.000Z,1008.6
2022-10-26T08:02:11.000Z,1008.6
2022-10-26T08:03:22.000Z,1008.5
2022-10-26T08:04:34.000Z,1008.6
2022-10-26T08:05:46.000Z,1008.6
2022-10-26T08:06:58.000Z,1008.6
2022-10-26T08:08:11.000Z,1008.6
2022-10-26T08:09:23.000Z,1008.6
2022-10-26T08:10:35.000Z,1008.7
2022-10-26T08:11:47.000Z,1008.7
2022-10-26T08:12:59.000Z,1008.7
2022-10-26T08:14:11.000Z,1008.7
2022-10-26T08:15:24.000Z,1008.7
2022-10-26T08:16:36.000Z,1008.7
2022-10-26T08:17:48.000Z,1008.7
2022-10-26T08:18:59.000Z,1008.7
2022-10-26T08:20:11.000Z,1008.7
2022-10-26T08:21:24.000Z,1008.7
2022-10-26T08:22:36.000Z,1008.7
2022-10-26T08:23:48.000Z,1008.8
2022-10-26T08:25:00.000Z,1008.7
2022-10-26T08:26:12.000Z,1008.7
2022-10-26T08:27:25.000Z,1008.7
2022-10-26T08:28:37.000Z,1008.7
2022-10-26T08:29:49.000Z,1008.6
2022-10-26T08:31:01.000Z,1008.6
2022-10-26T08:32:13.000Z,1008.6
2022-10-26T08:33:25.000Z,1008.6
2022-10-26T08:34:37.000Z,1008.5
2022-10-26T08:35:49.000Z,1008.6
2022-10-26T08:37:01.000Z,1008.6
2022-10-26T08:38:13.000Z,1008.6
2022-10-26T08:39:25.000Z,1008.5
2022-10-26T08:40:38.000Z,1008.6
2022-10-26T08:41:50.000Z,1008.5
2022-10-26T08:43:02.000Z,1008.5
2022-10-26T08:44:14.000Z,1008.5
2022-10-26T08:45:26.000Z,1008.5
2022-10-26T08:46:39.000Z,1008.5
2022-10-26T08:47:51.000Z,1008.5
2022-10-26T08:49:03.000Z,1008.5
2022-10-26T08:50:14.000Z,1008.5
2022-10-26T08:51:26.000Z,1008.5
2022-10-26T08:52:38.000Z,1008.5
2022-10-26T08:53:51.000Z,1008.6
2022-10-26T08:55:03.000Z,1008.6
2022-10-26T08:56:15.000Z,1008.6
2022-10-26T08:57:27.000Z,1008.6
2022-10-26T08:58:39.000Z,1008.6
2022-10-26T08:59:52.000Z,1008.6
2022-10-26T09:01:04.000Z,1008.6
2022-10-26T09:02:16.000Z,1008.6
2022-10-26T09:03:28.000Z,1008.6
2022-10-26T09:04:40.000Z,1008.6
2022-10-26T09:05:52.000Z,1008.6
2022-10-26T09:07:04.000Z,1008.7
2022-10-26T09:08:16.000Z,1008.6
2022-10-26T09:09:28.000Z,1008.6
2022-10-26T09:10:40.000Z,1008.6
2022-10-26T09:11:52.000Z,1008.6
2022-10-26T09:13:05.000Z,1008.6
2022-10-26T09:14:17.000Z,1008.6
2022-10-26T09:15:29.000Z,1008.6
2022-10-26T09:16:41.000Z,1008.5
2022-10-26T09:17:53.000Z,1008.5
2022-10-26T09:20:18.000Z,1008.6
2022-10-26T09:21:29.000Z,1008.6
2022-10-26T09:22:41.000Z,1008.5
2022-10-26T09:23:53.000Z,1008.6
2022-10-26T09:25:05.000Z,1008.6
2022-10-26T09:25:25.000Z,1008.6
2022-10-26T09:26:18.000Z,1008.6
2022-10-26T09:27:30.000Z,1008.6
2022-10-26T09:28:42.000Z,1008.7
2022-10-26T09:29:54.000Z,1008.6
2022-10-26T09:31:06.000Z,1008.7
2022-10-26T09:32:19.000Z,1008.6
2022-10-26T09:33:31.000Z,1008.7
2022-10-26T09:34:43.000Z,1008.6
2022-10-26T09:35:55.000Z,1008.6
2022-10-26T09:37:06.000Z,1008.7
2022-10-26T09:38:19.000Z,1008.7
2022-10-26T09:39:31.000Z,1008.6
2022-10-26T09:40:43.000Z,1008.7
2022-10-26T09:41:55.000Z,1008.8
2022-10-26T09:43:07.000Z,1008.7
2022-10-26T09:44:19.000Z,1008.7
2022-10-26T09:45:32.000Z,1008.6
2022-10-26T09:46:44.000Z,1008.7
2022-10-26T09:47:56.000Z,1008.7
2022-10-26T09:49:08.000Z,1008.6
2022-10-26T09:50:20.000Z,1008.7
2022-10-26T09:51:33.000Z,1008.7
2022-10-26T09:52:44.000Z,1008.7
2022-10-26T09:53:56.000Z,1008.8
2022-10-26T09:55:08.000Z,1008.7
2022-10-26T09:56:20.000Z,1008.8
2022-10-26T09:57:33.000Z,1008.8
2022-10-26T09:58:45.000Z,1008.7
2022-10-26T09:59:57.000Z,1008.7
2022-10-26T10:01:09.000Z,1008.6
2022-10-26T10:02:21.000Z,1008.6
2022-10-26T10:03:33.000Z,1008.6
2022-10-26T10:04:46.000Z,1008.6
2022-10-26T10:05:58.000Z,1008.6
2022-10-26T10:07:10.000Z,1008.6
2022-10-26T10:08:21.000Z,1008.7
2022-10-26T10:09:33.000Z,1008.7
2022-10-26T10:10:46.000Z,1008.6
2022-10-26T10:11:58.000Z,1008.7
2022-10-26T10:13:10.000Z,1008.7
2022-10-26T10:14:22.000Z,1008.6
2022-10-26T10:15:34.000Z,1008.6
2022-10-26T10:16:46.000Z,1008.7
2022-10-26T10:19:11.000Z,1008.6
2022-10-26T10:20:23.000Z,1008.7
2022-10-26T10:21:35.000Z,1008.7
2022-10-26T10:22:47.000Z,1008.8
2022-10-26T10:23:59.000Z,1008.8
2022-10-26T10:24:18.000Z,1008.7
2022-10-26T10:25:11.000Z,1008.8
2022-10-26T10:26:23.000Z,1008.8
2022-10-26T10:27:35.000Z,1008.8
2022-10-26T10:28:47.000Z,1008.8
2022-10-26T10:30:00.000Z,1008.8
2022-10-26T10:31:12.000Z,1008.8
2022-10-26T10:32:24.000Z,1008.8
2022-10-26T10:33:36.000Z,1008.9
2022-10-26T10:34:48.000Z,1008.8
2022-10-26T10:36:00.000Z,1008.8
2022-10-26T10:37:13.000Z,1008.7
2022-10-26T10:38:25.000Z,1008.8
2022-10-26T10:39:36.000Z,1008.8
2022-10-26T10:40:48.000Z,1008.8
2022-10-26T10:42:00.000Z,1008.8
2022-10-26T10:43:13.000Z,1008.8
2022-10-26T10:44:25.000Z,1008.8
2022-10-26T10:45:37.000Z,1008.7
2022-10-26T10:46:49.000Z,1008.8
2022-10-26T10:48:01.000Z,1008.7
2022-10-26T10:49:13.000Z,1008.8
2022-10-26T10:50:26.000Z,1008.8
2022-10-26T10:51:38.000Z,1008.8
2022-10-26T10:52:50.000Z,1008.8
2022-10-26T10:55:14.000Z,1008.8
2022-10-26T10:56:26.000Z,1008.8
2022-10-26T10:57:38.000Z,1008.8
2022-10-26T10:58:50.000Z,1008.8
2022-10-26T11:00:02.000Z,1008.8
2022-10-26T11:00:22.000Z,1008.8
2022-10-26T11:01:14.000Z,1008.9
2022-10-26T11:02:27.000Z,1008.8
2022-10-26T11:03:39.000Z,1008.9
2022-10-26T11:04:51.000Z,1008.8
2022-10-26T11:06:03.000Z,1008.9
2022-10-26T11:07:15.000Z,1008.9
2022-10-26T11:08:27.000Z,1008.8
2022-10-26T11:09:40.000Z,1008.8
2022-10-26T11:10:52.000Z,1008.9
2022-10-26T11:12:03.000Z,1008.9
2022-10-26T11:13:15.000Z,1008.9
2022-10-26T11:14:27.000Z,1008.9
2022-10-26T11:15:40.000Z,1008.8
2022-10-26T11:16:52.000Z,1008.8
2022-10-26T11:18:04.425Z,1008.8
2022-10-26T11:19:16.000Z,1008.8
2022-10-26T11:20:28.000Z,1008.8
2022-10-26T11:21:40.000Z,1008.8
2022-10-26T11:22:53.000Z,1008.7
2022-10-26T11:24:05.000Z,1008.8
2022-10-26T11:25:17.000Z,1008.8
2022-10-26T11:26:29.000Z,1008.9
2022-10-26T11:27:40.000Z,1008.8
2022-10-26T11:28:53.000Z,1008.8
2022-10-26T11:30:05.000Z,1008.8
2022-10-26T11:31:17.000Z,1008.9
2022-10-26T11:32:29.000Z,1008.8
2022-10-26T11:33:40.000Z,1008.8
2022-10-26T11:34:53.000Z,1008.8
2022-10-26T11:36:05.000Z,1008.8
2022-10-26T11:37:17.000Z,1008.8
2022-10-26T11:38:29.000Z,1008.9
2022-10-26T11:39:41.000Z,1008.8
2022-10-26T11:40:53.000Z,1008.9
2022-10-26T11:42:06.000Z,1008.8
2022-10-26T11:43:18.000Z,1008.8
2022-10-26T11:44:30.000Z,1008.9
2022-10-26T11:45:42.000Z,1008.9
2022-10-26T11:46:54.000Z,1008.9
2022-10-26T11:48:07.000Z,1008.9
2022-10-26T11:49:19.000Z,1008.9
2022-10-26T11:50:30.000Z,1009
2022-10-26T11:51:42.000Z,1009
2022-10-26T11:52:54.000Z,1009
2022-10-26T11:54:06.000Z,1008.9
2022-10-26T11:55:19.000Z,1008.9
2022-10-26T11:56:31.000Z,1008.9
2022-10-26T11:57:43.000Z,1008.9
2022-10-26T11:58:55.000Z,1008.9
2022-10-26T12:00:07.000Z,1009
2022-10-26T12:01:20.000Z,1008.9
2022-10-26T12:02:32.000Z,1009
2022-10-26T12:03:44.000Z,1008.9
2022-10-26T12:04:56.000Z,1009
2022-10-26T12:06:07.000Z,1008.9
2022-10-26T12:07:20.000Z,1008.9
2022-10-26T12:08:32.000Z,1009
2022-10-26T12:09:44.000Z,1009
2022-10-26T12:10:56.000Z,1009
2022-10-26T12:12:08.000Z,1009
2022-10-26T12:13:20.000Z,1009
2022-10-26T12:14:33.000Z,1009
2022-10-26T12:15:45.000Z,1008.9
2022-10-26T12:16:57.000Z,1008.9
2022-10-26T12:18:09.000Z,1008.9
2022-10-26T12:19:21.000Z,1008.8
2022-10-26T12:20:34.000Z,1008.8
2022-10-26T12:21:45.000Z,1008.8
2022-10-26T12:22:57.000Z,1008.8
2022-10-26T12:24:09.000Z,1008.8
2022-10-26T12:25:21.000Z,1008.8
2022-10-26T12:26:33.000Z,1008.7
2022-10-26T12:27:46.000Z,1008.7
2022-10-26T12:28:58.000Z,1008.8
2022-10-26T12:30:10.000Z,1008.8
2022-10-26T12:31:22.000Z,1008.8
2022-10-26T12:32:34.000Z,1008.8
2022-10-26T12:33:47.000Z,1008.8
2022-10-26T12:34:59.000Z,1008.8
2022-10-26T12:36:11.000Z,1008.8
2022-10-26T12:37:22.000Z,1008.8
2022-10-26T12:38:34.000Z,1008.8
2022-10-26T12:39:47.000Z,1008.8
2022-10-26T12:40:59.000Z,1008.8
2022-10-26T12:42:11.000Z,1008.8
2022-10-26T12:43:23.000Z,1008.8
2022-10-26T12:44:35.000Z,1008.8
2022-10-26T12:45:47.000Z,1008.8
2022-10-26T12:47:00.000Z,1008.8
2022-10-26T12:48:12.000Z,1008.8
2022-10-26T12:49:24.000Z,1008.7
2022-10-26T12:50:36.000Z,1008.7
2022-10-26T12:51:48.000Z,1008.7
2022-10-26T12:53:00.000Z,1008.7
2022-10-26T12:54:12.000Z,1008.7
2022-10-26T12:55:24.000Z,1008.7
2022-10-26T12:56:36.000Z,1008.7
2022-10-26T12:57:48.000Z,1008.8
2022-10-26T12:59:00.000Z,1008.8
2022-10-26T13:00:13.000Z,1008.7
2022-10-26T13:01:25.000Z,1008.8
2022-10-26T13:02:37.000Z,1008.8
2022-10-26T13:03:49.000Z,1008.8
2022-10-26T13:05:01.000Z,1008.7
2022-10-26T13:06:14.000Z,1008.8
2022-10-26T13:07:26.000Z,1008.7
2022-10-26T13:09:49.000Z,1008.7
2022-10-26T13:11:01.000Z,1008.7
2022-10-26T13:12:14.000Z,1008.7
2022-10-26T13:13:26.000Z,1008.7
2022-10-26T13:14:38.000Z,1008.7
2022-10-26T13:15:50.000Z,1008.6
2022-10-26T13:17:02.000Z,1008.6
2022-10-26T13:18:14.000Z,1008.6
2022-10-26T13:19:27.000Z,1008.7
2022-10-26T13:20:39.000Z,1008.6
2022-10-26T13:21:51.000Z,1008.6
2022-10-26T13:23:03.000Z,1008.6
2022-10-26T13:24:14.000Z,1008.6
2022-10-26T13:25:27.000Z,1008.6
2022-10-26T13:26:39.000Z,1008.6
2022-10-26T13:27:51.000Z,1008.6
2022-10-26T13:29:03.000Z,1008.7
2022-10-26T13:30:15.000Z,1008.7
2022-10-26T13:31:27.000Z,1008.7
2022-10-26T13:32:40.000Z,1008.7
2022-10-26T13:33:52.000Z,1008.7
2022-10-26T13:35:04.000Z,1008.7
2022-10-26T13:36:16.000Z,1008.8
2022-10-26T13:37:28.000Z,1008.8
2022-10-26T13:38:41.000Z,1008.8
2022-10-26T13:39:52.000Z,1008.8
2022-10-26T13:41:04.000Z,1008.9
2022-10-26T13:42:16.000Z,1008.9
2022-10-26T13:43:28.000Z,1008.9
2022-10-26T13:44:41.000Z,1008.9
2022-10-26T13:45:53.000Z,1008.9
2022-10-26T13:47:05.000Z,1009
2022-10-26T13:48:17.000Z,1009
2022-10-26T13:49:29.000Z,1009.1
2022-10-26T13:50:41.000Z,1009.1
2022-10-26T13:51:54.000Z,1009.1
2022-10-26T13:53:06.000Z,1009.2
2022-10-26T13:54:18.000Z,1009.2
2022-10-26T13:55:29.000Z,1009.2
2022-10-26T13:56:41.000Z,1009.2
2022-10-26T13:57:54.000Z,1009.2
2022-10-26T13:59:06.000Z,1009.3
2022-10-26T14:00:18.000Z,1009.3
2022-10-26T14:01:30.000Z,1009.2
2022-10-26T14:02:42.000Z,1009.2
2022-10-26T14:03:54.000Z,1009.2
2022-10-26T14:05:07.000Z,1009.2
2022-10-26T14:06:19.000Z,1009.2
2022-10-26T14:07:31.000Z,1009.1
2022-10-26T14:08:43.000Z,1009.1
2022-10-26T14:09:55.000Z,1009.2
2022-10-26T14:11:08.000Z,1009.2
2022-10-26T14:12:20.000Z,1009.2
2022-10-26T14:13:31.000Z,1009.3
2022-10-26T14:14:43.000Z,1009.2
2022-10-26T14:15:55.000Z,1009.3
2022-10-26T14:17:08.000Z,1009.3
2022-10-26T14:18:20.000Z,1009.4
2022-10-26T14:19:32.000Z,1009.3
2022-10-26T14:20:44.000Z,1009.3
2022-10-26T14:21:56.000Z,1009.3
2022-10-26T14:23:08.000Z,1009.3
2022-10-26T14:24:21.000Z,1009.3
2022-10-26T14:25:33.000Z,1009.2
2022-10-26T14:26:45.000Z,1009.3
2022-10-26T14:27:57.000Z,1009.3
2022-10-26T14:29:09.000Z,1009.2
2022-10-26T14:30:21.000Z,1009.2
2022-10-26T14:31:33.000Z,1009.2
2022-10-26T14:32:45.000Z,1009.2
2022-10-26T14:33:57.000Z,1009.2
2022-10-26T14:35:09.000Z,1009.2
2022-10-26T14:36:21.000Z,1009.2
2022-10-26T14:37:34.000Z,1009.2
2022-10-26T14:38:46.000Z,1009.2
2022-10-26T14:39:58.000Z,1009.2
2022-10-26T14:41:10.000Z,1009.2
2022-10-26T14:42:22.000Z,1009.2
2022-10-26T14:43:35.000Z,1009.2
2022-10-26T14:44:47.000Z,1009.2
2022-10-26T14:45:58.000Z,1009.2
2022-10-26T14:47:10.000Z,1009.3
2022-10-26T14:48:22.000Z,1009.2
2022-10-26T14:49:35.000Z,1009.2
2022-10-26T14:50:47.000Z,1009.2
2022-10-26T14:51:59.000Z,1009.2
2022-10-26T14:53:11.000Z,1009.3
2022-10-26T14:54:23.000Z,1009.3
2022-10-26T14:55:35.000Z,1009.3
2022-10-26T14:56:48.000Z,1009.3
2022-10-26T14:58:00.000Z,1009.3
2022-10-26T14:59:12.000Z,1009.3
2022-10-26T15:00:24.000Z,1009.3
2022-10-26T15:01:35.000Z,1009.3
2022-10-26T15:02:48.000Z,1009.3
2022-10-26T15:04:00.000Z,1009.3
2022-10-26T15:05:12.000Z,1009.3
2022-10-26T15:06:24.000Z,1009.3
2022-10-26T15:07:36.000Z,1009.3
2022-10-26T15:08:48.000Z,1009.3
2022-10-26T15:10:01.000Z,1009.3
2022-10-26T15:11:13.000Z,1009.3